Time;durP1;ratioP1;P1;durP2;ratioP2;P2;SDS_P1;SDS_P2;PMS_P1;PMS_P2;Temp;Humidity;BMP_temperature;BMP_pressure;BME280_temperature;BME280_humidity;BME280_pressure;Samples;Min_cycle;Max_cycle;Signal;HPM_P1;HPM_P2
2021/05/31 00:02:20;;;;;;;1999.90;999.90;;;;;;;15.17;82.99;99894.45;1787273;80;21221;-80
2021/05/31 00:05:25;;;;;;;1999.90;999.90;;;;;;;15.19;83.05;99888.17;1704973;84;21198;-80
2021/05/31 00:08:31;;;;;;;1999.90;999.90;;;;;;;15.20;83.15;99894.03;1725179;83;21308;-80
2021/05/31 00:11:37;;;;;;;1999.90;999.90;;;;;;;15.22;82.96;99891.89;1787501;79;21268;-80
2021/05/31 00:14:43;;;;;;;1999.90;999.90;;;;;;;15.19;82.88;99899.20;1787662;80;21299;-81
2021/05/31 00:17:49;;;;;;;1999.90;999.90;;;;;;;15.18;82.88;99890.62;1704335;83;21308;-80
2021/05/31 00:20:54;;;;;;;1999.90;999.90;;;;;;;15.18;82.94;99892.84;1704473;84;21308;-80
2021/05/31 00:24:00;;;;;;;1999.90;999.90;;;;;;;15.15;82.90;99895.17;1721402;83;21316;-80
2021/05/31 00:27:05;;;;;;;1999.90;999.90;;;;;;;15.14;82.89;99896.24;1788170;79;21795;-80
2021/05/31 00:30:13;;;;;;;1999.90;999.90;;;;;;;15.13;83.04;99894.03;1705243;84;21827;-81
2021/05/31 00:33:18;;;;;;;1999.90;999.90;;;;;;;15.13;82.98;99898.69;1721309;83;21522;-81
2021/05/31 00:36:24;;;;;;;1999.90;999.90;;;;;;;15.13;83.16;99889.89;1720702;83;21712;-80
2021/05/31 00:39:29;;;;;;;1999.90;999.90;;;;;;;15.18;83.20;99887.87;1721173;82;21344;-83
2021/05/31 00:42:34;;;;;;;1999.90;999.90;;;;;;;15.21;83.06;99884.69;1787568;79;21315;-83
2021/05/31 00:45:40;;;;;;;1999.90;999.90;;;;;;;15.20;82.94;99884.38;1704295;84;21324;-82
2021/05/31 00:48:46;;;;;;;1999.90;999.90;;;;;;;15.17;82.98;99887.02;1681233;84;21304;-82
2021/05/31 00:51:52;;;;;;;1999.90;999.90;;;;;;;15.13;82.96;99887.14;1721710;83;21324;-83
2021/05/31 00:54:57;;;;;;;1999.90;999.90;;;;;;;15.08;83.02;99883.66;1723264;83;21217;-83
2021/05/31 00:58:03;;;;;;;1999.90;999.90;;;;;;;15.05;83.29;99892.88;1723092;83;21178;-83
2021/05/31 01:01:09;;;;;;;1999.90;999.90;;;;;;;15.01;83.55;99880.09;1723267;83;21759;-83
2021/05/31 01:04:14;;;;;;;1999.90;999.90;;;;;;;15.01;83.68;99886.13;1723304;83;21232;-82
2021/05/31 01:07:34;;;;;;;1999.90;999.90;;;;;;;14.96;83.74;99886.77;1723262;83;21285;-82
2021/05/31 01:11:01;;;;;;;1999.90;999.90;;;;;;;14.94;83.89;99887.50;1723488;83;21332;-83
2021/05/31 01:14:29;;;;;;;1999.90;999.90;;;;;;;14.90;83.84;99883.48;1723186;83;21185;-82
2021/05/31 01:18:10;;;;;;;1999.90;999.90;;;;;;;14.84;83.81;99884.35;1686725;83;21323;-83
2021/05/31 01:21:31;;;;;;;1999.90;999.90;;;;;;;14.79;84.04;99886.91;1722128;83;21309;-83
2021/05/31 01:24:59;;;;;;;1999.90;999.90;;;;;;;14.75;84.25;99887.01;1721785;83;21340;-82
2021/05/31 01:28:25;;;;;;;1999.90;999.90;;;;;;;14.67;84.72;99894.10;1722766;83;21309;-82
2021/05/31 01:31:45;;;;;;;1999.90;999.90;;;;;;;14.56;85.12;99899.73;1723152;83;21285;-82
2021/05/31 01:34:51;;;;;;;1999.90;999.90;;;;;;;14.53;85.58;99896.86;1723312;83;21289;-83
2021/05/31 01:37:57;;;;;;;1999.90;999.90;;;;;;;14.53;85.74;99896.02;1723274;83;21848;-83
2021/05/31 01:41:01;;;;;;;1999.90;999.90;;;;;;;14.50;85.92;99900.05;1723021;83;21823;-82
2021/05/31 01:44:07;;;;;;;1999.90;999.90;;;;;;;14.50;86.13;99904.18;1723236;83;21309;-82
2021/05/31 01:47:12;;;;;;;1999.90;999.90;;;;;;;14.52;86.35;99903.96;1723318;83;21875;-82
2021/05/31 01:50:18;;;;;;;1999.90;999.90;;;;;;;14.51;86.22;99907.24;1723245;83;21158;-83
2021/05/31 01:53:23;;;;;;;1999.90;999.90;;;;;;;14.53;86.21;99911.15;1696771;83;21317;-82
2021/05/31 01:56:28;;;;;;;1999.90;999.90;;;;;;;14.54;85.98;99908.20;1712916;83;21284;-82
2021/05/31 01:59:33;;;;;;;1999.90;999.90;;;;;;;14.54;85.93;99915.09;1700672;84;21319;-83
2021/05/31 02:02:38;;;;;;;1999.90;999.90;;;;;;;14.55;85.82;99914.55;1707524;84;21329;-83
2021/05/31 02:05:43;;;;;;;1999.90;999.90;;;;;;;14.51;85.55;99914.66;1707618;84;21351;-82
2021/05/31 02:08:50;;;;;;;1999.90;999.90;;;;;;;14.50;85.56;99911.06;1707638;84;21312;-83
2021/05/31 02:12:18;;;;;;;1999.90;999.90;;;;;;;14.43;85.81;99914.30;1707288;84;21818;-82
2021/05/31 02:15:26;;;;;;;1999.90;999.90;;;;;;;14.40;86.13;99909.77;1707467;84;21174;-83
2021/05/31 02:18:49;;;;;;;1999.90;999.90;;;;;;;14.39;86.51;99912.17;1766546;81;21168;-82
2021/05/31 02:21:54;;;;;;;1999.90;999.90;;;;;;;14.42;86.58;99912.60;1766563;81;21320;-83
2021/05/31 02:25:00;;;;;;;1999.90;999.90;;;;;;;14.43;86.57;99907.95;1767148;81;21798;-82
2021/05/31 02:28:05;;;;;;;1999.90;999.90;;;;;;;14.42;86.68;99904.88;1766540;81;21857;-83
2021/05/31 02:31:13;;;;;;;1999.90;999.90;;;;;;;14.44;87.04;99911.01;1767139;81;21184;-82
2021/05/31 02:34:19;;;;;;;1999.90;999.90;;;;;;;14.48;87.15;99915.91;1766717;81;21177;-82
2021/05/31 02:37:23;;;;;;;1999.90;999.90;;;;;;;14.56;87.22;99911.58;1766319;81;21778;-83
2021/05/31 02:40:29;;;;;;;1999.90;999.90;;;;;;;14.71;87.27;99916.02;1766489;81;21181;-82
2021/05/31 02:43:35;;;;;;;1999.90;999.90;;;;;;;14.95;86.92;99919.48;1766297;81;21330;-83
2021/05/31 02:46:40;;;;;;;1999.90;999.90;;;;;;;15.25;86.04;99917.10;1766595;81;21785;-82
2021/05/31 02:49:45;;;;;;;1999.90;999.90;;;;;;;15.54;84.84;99917.10;1766878;81;21770;-82
2021/05/31 02:52:50;;;;;;;1999.90;999.90;;;;;;;15.75;83.57;99909.08;1773118;80;21854;-83
2021/05/31 02:55:53;;;;;;;1999.90;999.90;;;;;;;15.89;82.43;99902.95;1787451;80;21307;-83
2021/05/31 02:58:58;;;;;;;1999.90;999.90;;;;;;;16.01;81.71;99903.12;1704753;84;21739;-82
2021/05/31 03:02:03;;;;;;;1999.90;999.90;;;;;;;16.12;80.62;99905.16;1787345;80;21154;-82
2021/05/31 03:05:12;;;;;;;1999.90;999.90;;;;;;;16.23;79.88;99905.84;1704620;84;21826;-83
2021/05/31 03:08:16;;;;;;;1999.90;999.90;;;;;;;16.32;79.66;99903.09;1705231;84;21293;-83
2021/05/31 03:11:21;;;;;;;1999.90;999.90;;;;;;;16.47;79.03;99903.33;1725815;83;21281;-83
2021/05/31 03:14:26;;;;;;;1999.90;999.90;;;;;;;16.51;78.26;99901.78;1747180;80;21316;-83
2021/05/31 03:17:31;;;;;;;1999.90;999.90;;;;;;;16.42;78.20;99903.13;1705110;83;21289;-83
2021/05/31 03:20:36;;;;;;;1999.90;999.90;;;;;;;16.35;78.53;99909.55;1787392;80;21750;-82
2021/05/31 03:23:42;;;;;;;1999.90;999.90;;;;;;;16.32;78.75;99909.99;1787377;80;21303;-83
2021/05/31 03:26:47;;;;;;;1999.90;999.90;;;;;;;16.28;78.73;99912.07;1699230;84;21344;-83
2021/05/31 03:29:53;;;;;;;1999.90;999.90;;;;;;;16.24;78.77;99917.19;1730808;83;21277;-82
2021/05/31 03:33:00;;;;;;;1999.90;999.90;;;;;;;16.21;78.98;99919.53;1787725;80;21851;-83
2021/05/31 03:36:06;;;;;;;1999.90;999.90;;;;;;;16.16;78.95;99917.44;1698822;84;21276;-83
2021/05/31 03:39:14;;;;;;;1999.90;999.90;;;;;;;16.07;79.32;99916.86;1787098;80;21281;-83
2021/05/31 03:42:18;;;;;;;1999.90;999.90;;;;;;;16.03;79.59;99926.64;1705226;83;21280;-83
2021/05/31 03:45:23;;;;;;;1999.90;999.90;;;;;;;16.00;79.95;99933.16;1787521;80;21165;-83
2021/05/31 03:48:27;;;;;;;1999.90;999.90;;;;;;;16.16;79.86;99929.02;1705575;82;21308;-83
2021/05/31 03:51:33;;;;;;;1999.90;999.90;;;;;;;16.46;79.65;99920.94;1759249;80;21259;-83
2021/05/31 03:54:38;;;;;;;1999.90;999.90;;;;;;;16.86;78.32;99915.97;1773098;80;21193;-83
2021/05/31 03:57:43;;;;;;;1999.90;999.90;;;;;;;17.19;76.63;99914.25;1789970;80;21192;-83
2021/05/31 04:00:49;;;;;;;1999.90;999.90;;;;;;;17.44;75.48;99914.70;1762949;80;21296;-83
2021/05/31 04:03:53;;;;;;;1999.90;999.90;;;;;;;17.62;74.61;99916.92;1757428;81;21315;-83
2021/05/31 04:11:33;;;;;;;1999.90;999.90;;;;;;;17.72;73.81;99919.69;1758579;80;21802;-83
2021/05/31 04:13:28;;;;;;;1999.90;999.90;;;;;;;17.78;72.91;99921.55;1766819;80;21299;-82
2021/05/31 04:16:34;;;;;;;1999.90;999.90;;;;;;;17.78;72.76;99927.08;1780187;80;21299;-82
2021/05/31 04:19:41;;;;;;;1999.90;999.90;;;;;;;17.75;72.45;99920.64;1767472;80;21265;-83
2021/05/31 04:22:45;;;;;;;1999.90;999.90;;;;;;;17.73;72.69;99918.59;1766085;80;21301;-83
2021/05/31 04:25:50;;;;;;;1999.90;999.90;;;;;;;17.79;72.36;99921.88;1769824;80;21284;-83
2021/05/31 04:28:56;;;;;;;1999.90;911.92;;;;;;;17.81;72.35;99922.47;1766341;80;21161;-83
2021/05/31 04:32:02;;;;;;;1999.90;963.38;;;;;;;17.82;72.09;99918.08;1722125;82;21264;-83
2021/05/31 04:35:07;;;;;;;1999.90;999.90;;;;;;;17.79;72.04;99920.48;1703605;83;21332;-83
2021/05/31 04:38:13;;;;;;;1999.90;999.90;;;;;;;17.81;72.24;99927.46;1710424;83;21253;-83
2021/05/31 04:41:17;;;;;;;1999.90;999.90;;;;;;;17.90;72.19;99929.38;1768246;80;21264;-83
2021/05/31 04:44:23;;;;;;;1999.90;999.90;;;;;;;17.93;71.86;99929.45;1720144;82;21276;-83
2021/05/31 04:47:27;;;;;;;1999.90;954.23;;;;;;;17.98;72.39;99926.83;1766146;80;21787;-83
2021/05/31 04:50:33;;;;;;;1999.90;999.90;;;;;;;18.11;71.67;99933.53;1767989;80;21272;-83
2021/05/31 04:53:39;;;;;;;1999.90;999.90;;;;;;;18.16;71.04;99934.22;1762779;79;21281;-83
2021/05/31 04:56:43;;;;;;;1999.90;999.90;;;;;;;18.27;70.98;99941.73;1759273;80;21328;-83
2021/05/31 04:59:49;;;;;;;1999.90;999.90;;;;;;;18.46;70.92;99939.75;1753883;80;21292;-83
2021/05/31 05:02:54;;;;;;;1999.90;999.90;;;;;;;18.69;69.54;99952.84;1771967;80;21158;-83
2021/05/31 05:06:00;;;;;;;1999.90;992.30;;;;;;;18.82;68.76;99938.73;1762838;80;21712;-83
2021/05/31 05:09:05;;;;;;;1999.90;985.85;;;;;;;18.87;67.99;99943.05;1765941;80;21272;-83
2021/05/31 05:12:12;;;;;;;1999.90;999.90;;;;;;;18.74;68.35;99937.19;1765171;80;21256;-83
2021/05/31 05:15:17;;;;;;;1999.90;999.90;;;;;;;18.68;68.89;99940.89;1769244;79;21285;-83
2021/05/31 05:18:22;;;;;;;1999.90;999.90;;;;;;;18.72;68.78;99945.41;1758620;80;21291;-83
2021/05/31 05:21:27;;;;;;;1999.90;999.90;;;;;;;18.76;68.86;99942.48;1760246;80;21681;-83
2021/05/31 05:24:33;;;;;;;1999.90;987.97;;;;;;;18.81;68.67;99932.91;1765833;80;21268;-83
2021/05/31 05:27:38;;;;;;;1999.90;914.70;;;;;;;19.04;68.06;99935.69;1768740;79;21323;-83
2021/05/31 05:30:43;;;;;;;1999.90;709.15;;;;;;;19.28;66.98;99937.06;1701017;82;21182;-82
2021/05/31 05:33:48;;;;;;;1999.90;825.80;;;;;;;19.30;65.64;99941.84;1702473;83;21501;-83
2021/05/31 05:36:59;;;;;;;1999.90;689.17;;;;;;;19.32;65.97;99945.20;1762344;79;21280;-82
2021/05/31 05:40:25;;;;;;;1999.90;803.37;;;;;;;19.37;65.14;99948.09;1767409;79;21292;-83
2021/05/31 05:46:37;;;;;;;1208.22;541.85;;;;;;;19.29;66.04;99945.68;1742711;79;21138;-83
2021/05/31 05:49:30;;;;;;;841.77;475.05;;;;;;;19.33;65.36;99942.18;1706457;82;21316;-83
2021/05/31 05:52:36;;;;;;;626.33;381.00;;;;;;;19.43;64.67;99940.72;1761203;79;21261;-83
2021/05/31 05:55:44;;;;;;;439.10;296.00;;;;;;;19.41;64.27;99931.27;1764643;80;21613;-82
2021/05/31 05:58:51;;;;;;;956.47;475.38;;;;;;;19.32;63.57;99939.66;1761627;79;21213;-83
2021/05/31 06:01:56;;;;;;;1723.00;599.30;;;;;;;19.24;64.31;99941.41;1766114;79;21289;-82
2021/05/31 06:04:57;;;;;;;1702.00;594.08;;;;;;;19.19;64.98;99938.52;1766171;79;21838;-81
2021/05/31 06:08:03;;;;;;;745.33;365.62;;;;;;;19.15;65.33;99941.80;1746832;79;21969;-86
2021/05/31 06:11:11;;;;;;;1122.45;511.70;;;;;;;19.24;65.45;99950.56;1762813;79;21327;-84
2021/05/31 06:14:24;;;;;;;600.08;410.48;;;;;;;19.35;64.82;99948.34;1713867;82;21233;-79
2021/05/31 06:17:29;;;;;;;1999.90;743.83;;;;;;;19.50;64.06;99946.45;1698858;83;21234;-78
2021/05/31 06:20:37;;;;;;;1999.90;786.40;;;;;;;19.67;63.71;99942.42;1764630;79;21771;-78
2021/05/31 06:23:43;;;;;;;993.58;475.80;;;;;;;19.86;63.23;99943.94;1762385;80;21213;-79
2021/05/31 06:26:48;;;;;;;1999.90;819.50;;;;;;;20.04;62.26;99951.24;1761718;79;22217;-78
2021/05/31 06:29:54;;;;;;;1999.90;759.92;;;;;;;20.05;61.67;99941.81;1764104;79;21180;-78
2021/05/31 06:32:58;;;;;;;1999.90;720.25;;;;;;;20.12;61.67;99936.94;1713935;81;21932;-78
2021/05/31 06:36:06;;;;;;;1522.95;554.45;;;;;;;20.19;61.25;99941.53;1767517;80;21359;-79
2021/05/31 06:39:11;;;;;;;1881.68;630.45;;;;;;;20.07;61.04;99936.84;1759796;79;21917;-80
2021/05/31 06:42:16;;;;;;;1602.85;653.10;;;;;;;19.92;61.46;99940.72;1765792;79;22254;-78
2021/05/31 06:45:27;;;;;;;1759.35;673.78;;;;;;;19.90;60.97;99938.71;1764341;80;21296;-79
2021/05/31 06:48:31;;;;;;;;;;;;;;;19.93;60.98;99935.45;1719753;82;21217;-79
2021/05/31 06:51:38;;;;;;;465.02;386.85;;;;;;;19.97;61.12;99935.81;1699327;82;20658;-79
2021/05/31 06:54:43;;;;;;;1899.87;738.80;;;;;;;20.00;60.68;99932.55;1762802;79;21190;-79
2021/05/31 06:57:51;;;;;;;1753.13;600.95;;;;;;;20.14;61.38;99928.39;1763915;79;21190;-79
2021/05/31 07:00:56;;;;;;;1999.90;755.83;;;;;;;20.28;60.66;99925.60;1766762;79;21288;-79
2021/05/31 07:04:01;;;;;;;1999.90;872.30;;;;;;;20.34;60.65;99934.87;1762753;79;21762;-78
2021/05/31 07:07:07;;;;;;;1999.90;804.27;;;;;;;20.43;60.87;99930.59;1760775;79;21288;-78
2021/05/31 07:10:14;;;;;;;1999.90;905.03;;;;;;;20.46;60.85;99930.06;1768602;79;21158;-77
2021/05/31 07:13:20;;;;;;;1999.90;774.85;;;;;;;20.50;61.09;99934.06;1760493;80;21287;-78
2021/05/31 07:16:25;;;;;;;1999.90;855.65;;;;;;;20.56;59.88;99916.42;1698176;83;21496;-78
2021/05/31 07:19:30;;;;;;;1999.90;833.47;;;;;;;20.65;60.62;99922.38;1695674;83;21700;-78
2021/05/31 07:22:37;;;;;;;1749.53;644.15;;;;;;;20.83;59.92;99925.45;1760234;79;21287;-79
2021/05/31 07:25:42;;;;;;;1337.25;603.65;;;;;;;20.96;59.00;99928.45;1762390;79;21275;-79
2021/05/31 07:28:49;;;;;;;1893.75;727.85;;;;;;;21.01;58.69;99921.02;1758381;79;21181;-79
2021/05/31 07:31:55;;;;;;;398.48;349.05;;;;;;;21.08;58.94;99923.65;1758975;79;21323;-79
2021/05/31 07:35:04;;;;;;;746.63;532.58;;;;;;;21.03;57.62;99928.58;1758130;79;21166;-79
2021/05/31 07:38:09;;;;;;;556.85;451.37;;;;;;;21.04;58.39;99916.91;1762558;80;21284;-79
2021/05/31 07:41:09;;;;;;;1133.22;617.83;;;;;;;21.10;58.28;99920.89;1700447;82;21308;-78
2021/05/31 07:44:14;;;;;;;1219.35;567.92;;;;;;;21.22;58.42;99921.33;1710123;82;21168;-78
2021/05/31 07:47:20;;;;;;;767.75;481.65;;;;;;;21.33;58.40;99924.59;1676557;83;21209;-79
2021/05/31 07:50:25;;;;;;;841.95;522.17;;;;;;;21.38;57.96;99930.23;1711227;81;21779;-78
2021/05/31 07:53:31;;;;;;;670.77;492.40;;;;;;;21.39;57.42;99927.73;1756186;79;21757;-78
2021/05/31 07:56:37;;;;;;;396.40;347.52;;;;;;;21.46;57.45;99926.17;1713869;81;21775;-78
2021/05/31 07:59:42;;;;;;;343.20;313.80;;;;;;;21.49;56.64;99938.16;1677003;84;21777;-78
2021/05/31 08:02:49;;;;;;;356.40;326.02;;;;;;;21.42;56.71;99932.80;1706966;82;21907;-79
2021/05/31 08:05:54;;;;;;;497.45;447.37;;;;;;;21.40;56.87;99944.71;1739516;80;21654;-78
2021/05/31 08:08:59;;;;;;;273.50;251.47;;;;;;;21.33;57.13;99927.38;1723125;81;21735;-79
2021/05/31 08:12:04;;;;;;;464.75;390.23;;;;;;;21.37;56.61;99927.16;1740247;80;21583;-80
2021/05/31 08:15:12;;;;;;;312.23;284.87;;;;;;;21.36;56.63;99927.72;1742298;81;21280;-78
2021/05/31 08:18:17;;;;;;;292.75;268.40;;;;;;;21.20;56.40;99931.32;1744322;80;21744;-79
2021/05/31 08:21:23;;;;;;;254.32;233.43;;;;;;;21.06;57.05;99921.66;1737368;81;21807;-78
2021/05/31 08:24:29;;;;;;;314.15;289.60;;;;;;;20.93;56.84;99929.78;1738953;80;21314;-79
2021/05/31 08:27:35;;;;;;;327.25;300.48;;;;;;;20.79;57.15;99934.00;1744980;81;21295;-79
2021/05/31 08:30:43;;;;;;;504.38;442.22;;;;;;;20.81;57.35;99936.00;1744393;80;21224;-79
2021/05/31 08:33:49;;;;;;;625.95;486.30;;;;;;;20.85;58.21;99931.63;1742389;81;21566;-79
2021/05/31 08:36:55;;;;;;;721.20;513.40;;;;;;;20.89;57.72;99927.25;1742231;80;21283;-78
2021/05/31 08:40:01;;;;;;;573.28;460.27;;;;;;;21.03;57.65;99935.53;1739253;80;21354;-78
2021/05/31 08:43:08;;;;;;;387.45;349.90;;;;;;;21.14;57.20;99924.84;1745101;80;21818;-78
2021/05/31 08:46:12;;;;;;;366.52;335.20;;;;;;;21.21;56.86;99936.33;1744944;81;21160;-79
2021/05/31 08:49:18;;;;;;;253.70;231.68;;;;;;;21.23;56.34;99941.11;1746773;80;21149;-78
2021/05/31 08:52:23;;;;;;;297.70;273.57;;;;;;;21.09;56.42;99942.01;1745402;80;21566;-78
2021/05/31 08:55:31;;;;;;;331.87;305.25;;;;;;;20.98;56.83;99924.30;1746345;80;21251;-78
2021/05/31 08:58:37;;;;;;;360.30;328.75;;;;;;;20.98;57.09;99923.47;1695378;83;21310;-79
2021/05/31 09:01:42;;;;;;;262.27;241.97;;;;;;;21.01;56.76;99921.58;1707950;82;21284;-79
2021/05/31 09:04:55;;;;;;;265.40;243.37;;;;;;;21.08;56.75;99924.48;1716340;81;21259;-79
2021/05/31 09:08:00;;;;;;;346.80;313.75;;;;;;;21.07;56.41;99931.13;1768078;80;21279;-78
2021/05/31 09:11:12;;;;;;;343.30;314.60;;;;;;;20.95;56.69;99930.39;1723745;81;21290;-79
2021/05/31 09:14:16;;;;;;;259.37;238.80;;;;;;;20.99;56.90;99912.11;1768391;80;21869;-79
2021/05/31 09:17:35;;;;;;;179.23;165.62;;;;;;;21.09;56.37;99921.99;1721344;80;21284;-80
2021/05/31 09:20:41;;;;;;;234.20;215.90;;;;;;;21.08;56.18;99916.15;1766518;79;21360;-78
2021/05/31 09:23:47;;;;;;;271.68;249.52;;;;;;;21.05;56.33;99918.03;1766488;79;21299;-77
2021/05/31 09:27:06;;;;;;;289.70;266.00;;;;;;;20.89;57.01;99910.02;1765698;80;21275;-78
2021/05/31 09:30:12;;;;;;;246.65;227.68;;;;;;;20.82;57.20;99915.44;1767647;80;21785;-78
2021/05/31 09:33:18;;;;;;;;;;;;;;;20.86;56.98;99909.67;1768729;79;21975;-78
2021/05/31 09:36:25;;;;;;;83.05;76.87;;;;;;;20.88;56.74;99915.80;1765119;79;20290;-78
2021/05/31 09:39:48;;;;;;;156.30;144.95;;;;;;;20.74;56.80;99911.69;1770580;79;21268;-78
2021/05/31 09:43:06;;;;;;;171.47;158.45;;;;;;;20.62;57.20;99908.45;1719452;81;21699;-77
2021/05/31 09:46:11;;;;;;;193.32;177.75;;;;;;;20.54;57.68;99905.25;1707557;82;21340;-77
2021/05/31 09:49:26;;;;;;;212.23;195.65;;;;;;;20.51;57.67;99908.52;1765263;80;21766;-77
2021/05/31 09:52:31;;;;;;;139.22;128.90;;;;;;;20.49;57.68;99915.72;1718046;81;21893;-78
2021/05/31 09:55:49;;;;;;;229.75;210.63;;;;;;;20.39;56.93;99913.58;1702764;82;21320;-79
2021/05/31 09:59:04;;;;;;;222.30;202.70;;;;;;;20.37;57.73;99912.13;1701332;82;21165;-79
2021/05/31 10:02:15;;;;;;;390.23;357.20;;;;;;;20.37;58.00;99910.22;1762661;80;21247;-79
2021/05/31 10:08:40;;;;;;;203.42;187.22;;;;;;;20.34;57.54;99914.88;1766847;79;21856;-79
2021/05/31 10:11:45;;;;;;;268.88;247.42;;;;;;;20.31;57.38;99919.53;1706777;82;21217;-79
2021/05/31 10:14:54;;;;;;;251.02;227.90;;;;;;;20.18;57.85;99921.22;1765405;80;21736;-79
2021/05/31 10:18:03;;;;;;;380.30;348.60;;;;;;;20.06;57.87;99917.67;1716926;81;21397;-79
2021/05/31 10:21:08;;;;;;;272.27;249.18;;;;;;;19.97;58.41;99911.67;1707669;83;21158;-79
2021/05/31 10:24:14;;;;;;;363.98;332.55;;;;;;;19.93;58.93;99916.03;1768439;80;21751;-80
2021/05/31 10:27:21;;;;;;;316.65;288.87;;;;;;;19.93;58.53;99900.76;1765300;80;21162;-79
2021/05/31 10:30:27;;;;;;;263.98;238.92;;;;;;;19.93;58.78;99902.14;1761765;80;21284;-79
2021/05/31 10:33:38;;;;;;;344.80;315.62;;;;;;;19.99;58.48;99903.92;1766401;80;21158;-79
2021/05/31 10:36:39;;;;;;;522.87;467.42;;;;;;;19.98;58.74;99905.56;1765865;79;21287;-78
2021/05/31 10:39:45;;;;;;;705.22;516.58;;;;;;;20.03;59.28;99896.79;1768348;79;21653;-79
2021/05/31 10:43:01;;;;;;;740.17;470.62;;;;;;;20.14;59.22;99892.30;1765642;80;21825;-79
2021/05/31 10:46:13;;;;;;;1144.20;539.95;;;;;;;20.23;58.93;99892.19;1764502;79;21252;-79
2021/05/31 10:49:25;;;;;;;727.00;474.70;;;;;;;20.27;59.76;99892.50;1762296;80;21277;-79
2021/05/31 10:52:31;;;;;;;532.95;474.18;;;;;;;20.40;58.78;99885.25;1765845;79;21299;-76
2021/05/31 10:55:36;;;;;;;705.73;497.13;;;;;;;20.54;58.48;99885.25;1765682;80;21828;-77
2021/05/31 10:58:52;;;;;;;661.70;412.60;;;;;;;20.65;58.30;99876.00;1717432;81;21636;-80
2021/05/31 11:01:56;;;;;;;414.35;360.85;;;;;;;20.75;58.66;99870.28;1765433;79;21273;-79
2021/05/31 11:05:15;;;;;;;839.87;527.80;;;;;;;20.71;57.93;99876.92;1768671;80;21759;-82
2021/05/31 11:08:37;;;;;;;425.45;337.85;;;;;;;20.61;58.89;99879.54;1767641;79;21287;-81
2021/05/31 11:11:48;;;;;;;416.30;369.25;;;;;;;20.59;58.57;99878.38;1756493;80;21154;-80
2021/05/31 11:14:55;;;;;;;476.10;421.27;;;;;;;20.60;58.72;99866.72;1716825;82;21372;-81
2021/05/31 11:18:01;;;;;;;255.83;231.70;;;;;;;20.61;58.63;99865.09;1767023;80;21408;-81
2021/05/31 11:21:08;;;;;;;291.42;266.48;;;;;;;20.64;57.61;99862.34;1761599;80;21143;-81
2021/05/31 11:24:14;;;;;;;304.50;276.65;;;;;;;20.64;57.52;99863.73;1767382;80;21877;-81
2021/05/31 11:27:20;;;;;;;381.40;348.35;;;;;;;20.66;57.98;99860.17;1764568;80;21303;-82
2021/05/31 11:30:28;;;;;;;127.82;118.30;;;;;;;20.65;58.17;99867.67;1762633;80;21654;-82
2021/05/31 11:33:33;;;;;;;144.93;133.52;;;;;;;20.64;56.23;99861.80;1771260;80;21145;-83
2021/05/31 11:36:47;;;;;;;168.15;154.38;;;;;;;20.64;56.10;99860.95;1745624;81;21267;-82
2021/05/31 11:39:53;;;;;;;122.85;113.65;;;;;;;20.70;56.34;99856.31;1774764;80;21268;-83
2021/05/31 11:43:01;;;;;;;115.85;107.50;;;;;;;20.67;56.31;99856.29;1764852;80;21691;-83
2021/05/31 11:46:05;;;;;;;302.35;114.17;;;;;;;20.67;56.34;99852.12;1765568;79;21617;-83
2021/05/31 11:49:15;;;;;;;105.25;97.62;;;;;;;20.67;55.67;99850.73;1701850;82;21728;-83
2021/05/31 11:52:21;;;;;;;104.27;96.30;;;;;;;20.65;56.08;99855.69;1719006;82;21351;-82
2021/05/31 11:55:32;;;;;;;124.10;114.77;;;;;;;20.67;55.54;99840.45;1761394;80;21786;-82
2021/05/31 11:58:38;;;;;;;87.92;81.67;;;;;;;20.76;55.70;99860.88;1746402;80;21300;-82
2021/05/31 12:01:42;;;;;;;130.75;120.90;;;;;;;20.74;55.44;99850.55;1764277;80;21843;-82
2021/05/31 12:04:56;;;;;;;77.97;71.95;;;;;;;20.65;56.59;99849.61;1751049;80;21285;-83
2021/05/31 12:08:00;;;;;;;90.42;84.05;;;;;;;20.74;55.05;99847.22;1766881;80;21714;-82
2021/05/31 12:11:06;;;;;;;76.97;71.40;;;;;;;20.80;55.18;99836.49;1766907;80;21873;-82
2021/05/31 12:14:11;;;;;;;124.38;115.42;;;;;;;20.85;54.89;99827.39;1775087;80;21759;-83
2021/05/31 12:17:17;;;;;;;76.22;70.45;;;;;;;20.88;55.72;99828.25;1761252;80;21272;-82
2021/05/31 12:20:22;;;;;;;93.92;87.30;;;;;;;20.90;55.09;99826.07;1751776;80;21293;-83
2021/05/31 12:23:28;;;;;;;97.08;89.90;;;;;;;20.87;55.46;99826.57;1765279;80;21257;-83
2021/05/31 12:26:34;;;;;;;108.90;100.80;;;;;;;20.88;55.29;99836.03;1763374;80;21252;-82
2021/05/31 12:29:52;;;;;;;110.10;102.15;;;;;;;20.88;55.19;99825.47;1762032;80;21775;-83
2021/05/31 12:32:58;;;;;;;109.78;101.67;;;;;;;20.87;55.40;99815.45;1762745;80;21814;-83
2021/05/31 12:36:03;;;;;;;101.90;93.92;;;;;;;20.84;55.97;99813.17;1771043;81;21719;-83
2021/05/31 12:39:09;;;;;;;108.90;100.70;;;;;;;20.78;55.71;99812.27;1767538;80;21303;-82
2021/05/31 12:42:14;;;;;;;137.00;127.02;;;;;;;20.70;56.11;99829.91;1768290;79;21259;-82
2021/05/31 12:45:21;;;;;;;101.45;94.13;;;;;;;20.71;57.21;99827.45;1770547;79;21292;-82
2021/05/31 12:48:29;;;;;;;133.75;123.82;;;;;;;20.79;56.83;99823.67;1765779;80;21249;-82
2021/05/31 12:51:35;;;;;;;125.18;115.60;;;;;;;20.85;56.33;99812.10;1764925;80;21856;-82
2021/05/31 12:54:41;;;;;;;98.80;91.53;;;;;;;20.90;56.21;99813.56;1762421;80;21273;-83
2021/05/31 12:57:51;;;;;;;116.90;108.40;;;;;;;21.00;55.41;99815.09;1720362;82;21818;-82
2021/05/31 13:00:58;;;;;;;77.17;71.53;;;;;;;21.03;55.47;99818.76;1768140;80;21252;-82
2021/05/31 13:04:05;;;;;;;78.52;72.75;;;;;;;21.04;54.87;99814.88;1766871;80;21295;-82
2021/05/31 13:07:12;;;;;;;132.72;123.25;;;;;;;21.00;55.15;99815.64;1769817;79;22182;-82
2021/05/31 13:10:20;;;;;;;108.00;100.18;;;;;;;20.95;56.49;99818.35;1748260;80;21244;-82
2021/05/31 13:13:26;;;;;;;121.97;112.32;;;;;;;20.92;55.87;99821.92;1728324;82;21293;-82
2021/05/31 13:16:36;;;;;;;122.58;113.12;;;;;;;20.78;56.40;99815.59;1714950;83;21329;-83
2021/05/31 13:19:48;;;;;;;121.92;112.95;;;;;;;20.65;56.48;99827.38;1762122;80;21755;-82
2021/05/31 13:23:05;;;;;;;90.95;84.13;;;;;;;20.64;56.37;99823.44;1777411;80;21292;-82
2021/05/31 13:26:28;;;;;;;153.70;142.18;;;;;;;20.61;56.37;99827.59;1762715;80;21304;-83
2021/05/31 13:29:35;;;;;;;88.03;81.53;;;;;;;20.56;56.94;99816.40;1768165;80;21385;-82
2021/05/31 13:32:41;;;;;;;111.45;103.42;;;;;;;20.53;56.08;99818.83;1772052;80;21932;-82
2021/05/31 13:35:46;;;;;;;102.02;94.47;;;;;;;20.43;56.57;99820.87;1760037;80;21260;-83
2021/05/31 13:38:51;;;;;;;100.47;93.07;;;;;;;20.41;56.24;99813.31;1773603;80;21170;-82
2021/05/31 13:41:58;;;;;;;115.88;107.43;;;;;;;20.24;56.37;99817.50;1766118;80;21249;-82
2021/05/31 13:45:15;;;;;;;115.77;107.20;;;;;;;20.16;57.06;99829.85;1728559;82;21668;-82
2021/05/31 13:48:21;;;;;;;153.20;141.80;;;;;;;20.11;56.84;99836.70;1693542;83;21748;-82
2021/05/31 13:51:27;;;;;;;143.45;132.10;;;;;;;20.01;57.31;99824.59;1716782;83;21364;-82
2021/05/31 13:54:35;;;;;;;152.80;140.73;;;;;;;19.96;57.72;99828.66;1699750;83;21292;-83
2021/05/31 13:57:43;;;;;;;133.10;122.75;;;;;;;19.89;57.57;99830.19;1740444;81;21280;-82
2021/05/31 14:00:54;;;;;;;172.75;159.18;;;;;;;19.74;57.48;99832.67;1770928;80;21673;-83
2021/05/31 14:04:00;;;;;;;116.25;107.63;;;;;;;19.58;57.76;99830.97;1789009;80;21158;-83
2021/05/31 14:07:08;;;;;;;209.12;192.18;;;;;;;19.45;57.69;99833.17;1680981;83;21300;-82
2021/05/31 14:10:24;;;;;;;290.48;266.80;;;;;;;19.31;58.28;99822.91;1702938;82;21332;-81